Flight Track Log - Related Links

Times and Time Zones

All times are in EST time to prevent confusion due to time zone crossing. See the UPS1269 flight status page for this flight to view local times or setup timezone preferences in your user account.

Time Position Orientation Groundspeed Altitude Reporting Facility
EST Latitude Longitude Course Direction KTS MPH feet Rate Location/Type
Thu 11:27:05 PM 36.1789 -80.1056 296° West 263 303 9,900  Level Atlanta Center
Thu 11:28:05 PM 36.2208 -80.1833 304° West 286 329 12,300 2,400 Climbing Atlanta Center
Thu 11:29:05 PM 36.2658 -80.2842 299° West 312 359 14,700 2,600 Climbing Atlanta Center
Thu 11:30:00 PM 36.4190 -80.5046 302° West  Level FlightAware Approximate
Thu 11:30:05 PM 36.3025 -80.4011 291° West 337 388 17,500  Level Atlanta Center
Thu 11:31:00 PM 36.4630 -80.6075 296° West  Level FlightAware Approximate
Thu 11:31:05 PM 36.3394 -80.5231 291° West 361 415 19,700  Level Atlanta Center
Thu 11:32:05 PM 36.3872 -80.6653 293° West 391 450 22,400 2,400 Climbing Atlanta Center
Thu 11:33:05 PM 36.4306 -80.7953 293° West 403 464 24,500 2,200 Climbing Atlanta Center
Thu 11:34:05 PM 36.4714 -80.9278 291° West 408 470 26,800 2,102 Climbing Atlanta Center
Thu 11:35:42 PM 36.5367 -81.1319 292° West 405 466 30,000 1,215 Climbing Indianapolis Center
Thu 11:36:43 PM 36.5747 -81.2594 290° West 404 465 30,000  Level Indianapolis Center
Thu 11:37:44 PM 36.6153 -81.3872 292° West 406 467 30,000  Level Indianapolis Center
Thu 11:38:45 PM 36.6558 -81.5156 292° West 407 468 30,000  Level Indianapolis Center
Thu 11:39:46 PM 36.6986 -81.6533 291° West 408 470 30,000  Level Indianapolis Center
Thu 11:40:47 PM 36.7392 -81.7856 291° West 408 470 30,000  Level Indianapolis Center
Thu 11:41:48 PM 36.7858 -81.9394 291° West 406 467 30,000  Level Indianapolis Center
Thu 11:42:49 PM 36.8261 -82.0722 291° West 408 470 30,000  Level Indianapolis Center
Thu 11:43:50 PM 36.8658 -82.2044 291° West 407 468 30,000  Level Indianapolis Center
Thu 11:44:51 PM 36.9061 -82.3372 291° West 408 470 30,000  Level Indianapolis Center
Thu 11:45:52 PM 36.9456 -82.4683 291° West 406 467 30,000  Level Indianapolis Center
Thu 11:46:53 PM 36.9844 -82.5997 290° West 405 466 30,000  Level Indianapolis Center
Thu 11:47:54 PM 37.0239 -82.7314 291° West 407 468 30,000  Level Indianapolis Center
Thu 11:48:55 PM 37.0631 -82.8631 290° West 410 472 30,000  Level Indianapolis Center
Thu 11:49:56 PM 37.1072 -83.0158 290° West 406 467 30,000  Level Indianapolis Center
Thu 11:50:57 PM 37.1456 -83.1469 290° West 404 465 30,000  Level Indianapolis Center
Thu 11:51:58 PM 37.1836 -83.2783 290° West 402 463 30,000  Level Indianapolis Center
Thu 11:52:59 PM 37.2217 -83.4106 290° West 404 465 30,000 -492 Level Indianapolis Center
Thu 11:54:00 PM 37.2592 -83.5439 289° West 405 466 29,000 -1,574 Descending Indianapolis Center
Thu 11:55:01 PM 37.2986 -83.6778 290° West 407 468 26,800 -2,115 Descending Indianapolis Center
Thu 11:56:02 PM 37.3381 -83.8172 290° West 421 484 24,700 -1,934 Descending Indianapolis Center
Thu 11:57:02 PM 37.3756 -83.9478 290° West 402 463 22,900 -1,785 Descending Indianapolis Center
Thu 11:58:03 PM 37.4097 -84.0731 289° West 382 440 21,100 -1,721 Descending Indianapolis Center
Thu 11:59:04 PM 37.4447 -84.1944 290° West 371 427 19,400 -1,672 Descending Indianapolis Center
Fri 12:00:05 AM 37.4778 -84.3142 289° West 363 418 17,700 -1,574 Descending Indianapolis Center
Fri 12:01:06 AM 37.5111 -84.4325 290° West 359 413 16,200 -1,209 Descending Indianapolis Center
Fri 12:06:32 AM 37.7190 -85.0447 290° West 344 396 9,900 -977 Descending FlightAware ADS-B
Fri 12:07:33 AM 37.7822 -85.1303 313° West 305 351 9,900 -99 Level FlightAware ADS-B
Fri 12:08:33 AM 37.8341 -85.2012 313° West 260 299 9,700 -500 Descending FlightAware ADS-B
Fri 12:09:33 AM 37.8829 -85.2697 312° West 264 304 8,900 -756 Descending FlightAware ADS-B
Fri 12:10:48 AM 37.9438 -85.3537 313° West 254 292 8,000 -756 Descending FlightAware ADS-B
Fri 12:11:48 AM 37.9908 -85.4195 312° West 253 291 7,200 -800 Descending FlightAware ADS-B
Fri 12:12:48 AM 38.0359 -85.4823 312° West 249 287 6,400 -655 Descending FlightAware ADS-B
Fri 12:13:47 AM 38.0819 -85.5492 311° West 247 284 5,900 -300 Descending FlightAware ADS-B
Fri 12:14:48 AM 38.1419 -85.5956 329° Northwest 255 293 5,800 -446 Descending FlightAware ADS-B
Fri 12:15:48 AM 38.2061 -85.6253 340° North 251 289 5,000 -814 Descending FlightAware ADS-B
Fri 12:16:46 AM 38.2737 -85.6496 344° North 259 298 4,200 -555 Descending FlightAware ADS-B
Fri 12:17:47 AM 38.3404 -85.6743 344° North 260 299 3,900 -149 Descending FlightAware ADS-B
Fri 12:18:47 AM 38.4050 -85.6967 345° North 207 238 3,900  Level FlightAware ADS-B
Fri 12:19:40 AM 38.4507 -85.7183 340° North 166 191 3,900  Level FlightAware ADS-B
Fri 12:20:34 AM 38.4417 -85.7588 254° West 157 181 3,900  Level FlightAware ADS-B
Fri 12:21:48 AM 38.3954 -85.7878 206° Southwest 158 182 3,900 54 Level FlightAware ADS-B
Fri 12:22:25 AM 38.3717 -85.7944 206° Southwest 170 196 4,000 -306 Climbing Indianapolis Center
Fri 12:23:26 AM 38.3250 -85.7786 165° South 174 200 3,400 -645 Descending Indianapolis Center
Fri 12:24:26 AM 38.2764 -85.7614 164° South 172 198 2,700 -784 Descending Indianapolis Center
Fri 12:26:22 AM 38.2167 -85.7333 160° South 123 142 1,100 -828 Descending Louisville TRACON

Login

Don't have an account? Register now (free) for customized features, flight alerts, and more!